sensor_id;sensor_type;location;lat;lon;timestamp;P1;durP1;ratioP1;P2;durP2;ratioP2
41305;SDS011;27051;50.376;19.152;2023-04-16T00:02:08;44.10;;;25.90;;
41305;SDS011;27051;50.376;19.152;2023-04-16T00:04:34;51.20;;;29.40;;
41305;SDS011;27051;50.376;19.152;2023-04-16T00:07:00;48.10;;;29.20;;
41305;SDS011;27051;50.376;19.152;2023-04-16T00:09:27;50.40;;;31.20;;
41305;SDS011;27051;50.376;19.152;2023-04-16T00:11:53;50.40;;;30.70;;
41305;SDS011;27051;50.376;19.152;2023-04-16T00:14:20;49.40;;;29.00;;
41305;SDS011;27051;50.376;19.152;2023-04-16T00:16:46;48.70;;;30.70;;
41305;SDS011;27051;50.376;19.152;2023-04-16T00:19:13;52.20;;;31.50;;
41305;SDS011;27051;50.376;19.152;2023-04-16T00:21:39;52.30;;;30.80;;
41305;SDS011;27051;50.376;19.152;2023-04-16T00:24:05;50.70;;;29.40;;
41305;SDS011;27051;50.376;19.152;2023-04-16T00:26:32;49.80;;;30.30;;
41305;SDS011;27051;50.376;19.152;2023-04-16T00:28:58;49.10;;;28.40;;
41305;SDS011;27051;50.376;19.152;2023-04-16T00:31:28;47.80;;;28.50;;
41305;SDS011;27051;50.376;19.152;2023-04-16T00:33:57;45.30;;;24.90;;
41305;SDS011;27051;50.376;19.152;2023-04-16T00:36:24;43.00;;;24.90;;
41305;SDS011;27051;50.376;19.152;2023-04-16T00:38:52;47.00;;;27.30;;
41305;SDS011;27051;50.376;19.152;2023-04-16T00:41:19;47.20;;;28.70;;
41305;SDS011;27051;50.376;19.152;2023-04-16T00:43:47;47.90;;;28.90;;
41305;SDS011;27051;50.376;19.152;2023-04-16T00:46:14;51.00;;;30.40;;
41305;SDS011;27051;50.376;19.152;2023-04-16T00:48:42;46.60;;;28.10;;
41305;SDS011;27051;50.376;19.152;2023-04-16T00:51:10;49.40;;;30.00;;
41305;SDS011;27051;50.376;19.152;2023-04-16T00:53:36;50.80;;;30.40;;
41305;SDS011;27051;50.376;19.152;2023-04-16T00:56:04;44.30;;;27.20;;
41305;SDS011;27051;50.376;19.152;2023-04-16T00:58:32;50.30;;;30.20;;
41305;SDS011;27051;50.376;19.152;2023-04-16T01:01:00;46.40;;;29.40;;
41305;SDS011;27051;50.376;19.152;2023-04-16T01:03:33;47.00;;;28.90;;
41305;SDS011;27051;50.376;19.152;2023-04-16T01:06:04;47.90;;;29.30;;
41305;SDS011;27051;50.376;19.152;2023-04-16T01:08:31;48.30;;;27.60;;
41305;SDS011;27051;50.376;19.152;2023-04-16T01:10:58;47.00;;;26.80;;
41305;SDS011;27051;50.376;19.152;2023-04-16T01:13:26;47.70;;;26.90;;
41305;SDS011;27051;50.376;19.152;2023-04-16T01:15:52;46.00;;;27.10;;
41305;SDS011;27051;50.376;19.152;2023-04-16T01:18:19;46.70;;;28.20;;
41305;SDS011;27051;50.376;19.152;2023-04-16T01:20:47;44.50;;;26.40;;
41305;SDS011;27051;50.376;19.152;2023-04-16T01:23:15;48.70;;;27.30;;
41305;SDS011;27051;50.376;19.152;2023-04-16T01:25:42;45.80;;;25.70;;
41305;SDS011;27051;50.376;19.152;2023-04-16T01:28:09;46.90;;;26.40;;
41305;SDS011;27051;50.376;19.152;2023-04-16T01:30:36;46.40;;;27.40;;
41305;SDS011;27051;50.376;19.152;2023-04-16T01:33:03;43.40;;;26.30;;
41305;SDS011;27051;50.376;19.152;2023-04-16T01:35:29;47.30;;;28.40;;
41305;SDS011;27051;50.376;19.152;2023-04-16T01:37:56;46.10;;;28.80;;
41305;SDS011;27051;50.376;19.152;2023-04-16T01:40:22;42.90;;;24.90;;
41305;SDS011;27051;50.376;19.152;2023-04-16T01:42:48;42.60;;;24.10;;
41305;SDS011;27051;50.376;19.152;2023-04-16T01:45:15;44.50;;;25.10;;
41305;SDS011;27051;50.376;19.152;2023-04-16T01:47:41;43.10;;;26.40;;
41305;SDS011;27051;50.376;19.152;2023-04-16T01:50:08;41.50;;;26.60;;
41305;SDS011;27051;50.376;19.152;2023-04-16T01:52:35;43.70;;;26.20;;
41305;SDS011;27051;50.376;19.152;2023-04-16T01:55:01;41.30;;;24.70;;
41305;SDS011;27051;50.376;19.152;2023-04-16T01:57:28;40.40;;;24.80;;
41305;SDS011;27051;50.376;19.152;2023-04-16T01:59:54;38.30;;;22.80;;
41305;SDS011;27051;50.376;19.152;2023-04-16T02:02:21;41.10;;;25.80;;
41305;SDS011;27051;50.376;19.152;2023-04-16T02:04:47;38.60;;;23.70;;
41305;SDS011;27051;50.376;19.152;2023-04-16T02:07:13;40.10;;;24.00;;
41305;SDS011;27051;50.376;19.152;2023-04-16T02:09:40;43.20;;;26.20;;
41305;SDS011;27051;50.376;19.152;2023-04-16T02:12:06;44.90;;;26.80;;
41305;SDS011;27051;50.376;19.152;2023-04-16T02:14:33;46.10;;;29.00;;
41305;SDS011;27051;50.376;19.152;2023-04-16T02:17:02;46.40;;;26.20;;
41305;SDS011;27051;50.376;19.152;2023-04-16T02:19:30;47.30;;;29.00;;
41305;SDS011;27051;50.376;19.152;2023-04-16T02:21:57;46.50;;;29.00;;
41305;SDS011;27051;50.376;19.152;2023-04-16T02:24:23;46.20;;;27.00;;
41305;SDS011;27051;50.376;19.152;2023-04-16T02:26:50;42.40;;;24.70;;
41305;SDS011;27051;50.376;19.152;2023-04-16T02:29:16;42.60;;;24.40;;
41305;SDS011;27051;50.376;19.152;2023-04-16T02:31:42;40.90;;;22.80;;
41305;SDS011;27051;50.376;19.152;2023-04-16T02:34:09;37.90;;;23.00;;
41305;SDS011;27051;50.376;19.152;2023-04-16T02:36:35;41.30;;;22.80;;
41305;SDS011;27051;50.376;19.152;2023-04-16T02:39:02;42.60;;;25.40;;
41305;SDS011;27051;50.376;19.152;2023-04-16T02:41:28;44.80;;;28.90;;
41305;SDS011;27051;50.376;19.152;2023-04-16T02:43:55;44.30;;;25.50;;
41305;SDS011;27051;50.376;19.152;2023-04-16T02:46:21;46.90;;;27.00;;
41305;SDS011;27051;50.376;19.152;2023-04-16T02:48:48;41.00;;;24.30;;
41305;SDS011;27051;50.376;19.152;2023-04-16T02:51:14;39.80;;;23.80;;
41305;SDS011;27051;50.376;19.152;2023-04-16T02:53:41;46.10;;;25.60;;
41305;SDS011;27051;50.376;19.152;2023-04-16T02:56:07;40.10;;;23.10;;
41305;SDS011;27051;50.376;19.152;2023-04-16T02:58:34;44.80;;;26.30;;
41305;SDS011;27051;50.376;19.152;2023-04-16T03:01:00;47.70;;;26.90;;
41305;SDS011;27051;50.376;19.152;2023-04-16T03:03:26;52.20;;;27.80;;
41305;SDS011;27051;50.376;19.152;2023-04-16T03:05:53;53.00;;;28.70;;
41305;SDS011;27051;50.376;19.152;2023-04-16T03:08:19;50.80;;;27.40;;
41305;SDS011;27051;50.376;19.152;2023-04-16T03:10:47;49.90;;;25.00;;
41305;SDS011;27051;50.376;19.152;2023-04-16T03:13:13;50.60;;;23.70;;
41305;SDS011;27051;50.376;19.152;2023-04-16T03:15:40;45.00;;;23.40;;
41305;SDS011;27051;50.376;19.152;2023-04-16T03:18:06;50.30;;;24.50;;
41305;SDS011;27051;50.376;19.152;2023-04-16T03:20:33;51.60;;;24.50;;
41305;SDS011;27051;50.376;19.152;2023-04-16T03:22:59;51.50;;;24.70;;
41305;SDS011;27051;50.376;19.152;2023-04-16T03:25:26;76.10;;;26.20;;
41305;SDS011;27051;50.376;19.152;2023-04-16T03:27:52;48.10;;;25.80;;
41305;SDS011;27051;50.376;19.152;2023-04-16T03:30:18;51.80;;;25.40;;
41305;SDS011;27051;50.376;19.152;2023-04-16T03:32:45;43.60;;;23.00;;
41305;SDS011;27051;50.376;19.152;2023-04-16T03:35:11;58.30;;;25.90;;
41305;SDS011;27051;50.376;19.152;2023-04-16T03:37:38;58.30;;;24.10;;
41305;SDS011;27051;50.376;19.152;2023-04-16T03:40:04;65.10;;;25.70;;
41305;SDS011;27051;50.376;19.152;2023-04-16T03:42:32;73.40;;;25.70;;
41305;SDS011;27051;50.376;19.152;2023-04-16T03:44:58;66.20;;;27.00;;
41305;SDS011;27051;50.376;19.152;2023-04-16T03:47:24;50.50;;;25.70;;
41305;SDS011;27051;50.376;19.152;2023-04-16T03:49:51;55.10;;;26.80;;
41305;SDS011;27051;50.376;19.152;2023-04-16T03:52:18;54.50;;;24.70;;
41305;SDS011;27051;50.376;19.152;2023-04-16T03:54:45;50.00;;;24.90;;
41305;SDS011;27051;50.376;19.152;2023-04-16T03:57:12;51.70;;;24.10;;
41305;SDS011;27051;50.376;19.152;2023-04-16T03:59:39;54.90;;;26.50;;
41305;SDS011;27051;50.376;19.152;2023-04-16T04:02:05;68.20;;;29.00;;
41305;SDS011;27051;50.376;19.152;2023-04-16T04:04:31;58.20;;;27.80;;
41305;SDS011;27051;50.376;19.152;2023-04-16T04:06:58;66.80;;;29.30;;
41305;SDS011;27051;50.376;19.152;2023-04-16T04:09:24;66.00;;;31.30;;
41305;SDS011;27051;50.376;19.152;2023-04-16T04:11:51;55.10;;;28.30;;
41305;SDS011;27051;50.376;19.152;2023-04-16T04:14:17;49.90;;;25.80;;
41305;SDS011;27051;50.376;19.152;2023-04-16T04:16:45;53.90;;;26.40;;
41305;SDS011;27051;50.376;19.152;2023-04-16T04:19:11;61.60;;;26.20;;
41305;SDS011;27051;50.376;19.152;2023-04-16T04:21:38;57.60;;;23.90;;
41305;SDS011;27051;50.376;19.152;2023-04-16T04:24:04;44.50;;;24.30;;
41305;SDS011;27051;50.376;19.152;2023-04-16T04:26:32;53.50;;;23.90;;
41305;SDS011;27051;50.376;19.152;2023-04-16T04:28:58;51.20;;;24.90;;
41305;SDS011;27051;50.376;19.152;2023-04-16T04:31:25;48.40;;;23.90;;
41305;SDS011;27051;50.376;19.152;2023-04-16T04:33:51;46.90;;;24.50;;
41305;SDS011;27051;50.376;19.152;2023-04-16T04:36:18;52.90;;;22.70;;
41305;SDS011;27051;50.376;19.152;2023-04-16T04:38:44;50.00;;;23.70;;
41305;SDS011;27051;50.376;19.152;2023-04-16T04:41:12;56.80;;;22.70;;
41305;SDS011;27051;50.376;19.152;2023-04-16T04:43:38;51.20;;;24.50;;
41305;SDS011;27051;50.376;19.152;2023-04-16T04:46:05;62.60;;;27.50;;
41305;SDS011;27051;50.376;19.152;2023-04-16T04:48:32;50.70;;;26.30;;
41305;SDS011;27051;50.376;19.152;2023-04-16T04:50:59;52.70;;;27.90;;
41305;SDS011;27051;50.376;19.152;2023-04-16T04:53:26;50.70;;;26.60;;
41305;SDS011;27051;50.376;19.152;2023-04-16T04:55:52;45.10;;;23.90;;
41305;SDS011;27051;50.376;19.152;2023-04-16T04:58:19;39.70;;;23.20;;
41305;SDS011;27051;50.376;19.152;2023-04-16T05:00:45;52.10;;;24.20;;
41305;SDS011;27051;50.376;19.152;2023-04-16T05:03:12;53.10;;;25.60;;
41305;SDS011;27051;50.376;19.152;2023-04-16T05:05:44;62.00;;;25.90;;
41305;SDS011;27051;50.376;19.152;2023-04-16T05:08:10;52.30;;;25.50;;
41305;SDS011;27051;50.376;19.152;2023-04-16T05:10:37;52.30;;;24.50;;
41305;SDS011;27051;50.376;19.152;2023-04-16T05:13:04;52.50;;;24.10;;
41305;SDS011;27051;50.376;19.152;2023-04-16T05:15:32;48.40;;;24.60;;
41305;SDS011;27051;50.376;19.152;2023-04-16T05:17:59;55.30;;;25.50;;
41305;SDS011;27051;50.376;19.152;2023-04-16T05:20:25;51.90;;;25.30;;
41305;SDS011;27051;50.376;19.152;2023-04-16T05:22:52;66.70;;;27.40;;
41305;SDS011;27051;50.376;19.152;2023-04-16T05:25:18;55.30;;;23.30;;
41305;SDS011;27051;50.376;19.152;2023-04-16T05:27:46;51.50;;;24.70;;
41305;SDS011;27051;50.376;19.152;2023-04-16T05:30:13;56.10;;;26.80;;
41305;SDS011;27051;50.376;19.152;2023-04-16T05:32:40;51.40;;;24.80;;
41305;SDS011;27051;50.376;19.152;2023-04-16T05:35:07;52.20;;;25.80;;
41305;SDS011;27051;50.376;19.152;2023-04-16T05:37:34;62.00;;;29.90;;
41305;SDS011;27051;50.376;19.152;2023-04-16T05:40:01;62.30;;;29.80;;
41305;SDS011;27051;50.376;19.152;2023-04-16T05:42:27;67.20;;;31.70;;
41305;SDS011;27051;50.376;19.152;2023-04-16T05:44:54;65.50;;;31.50;;
41305;SDS011;27051;50.376;19.152;2023-04-16T05:47:20;61.30;;;31.70;;
41305;SDS011;27051;50.376;19.152;2023-04-16T05:49:47;63.40;;;30.80;;
41305;SDS011;27051;50.376;19.152;2023-04-16T05:52:14;58.40;;;29.70;;
41305;SDS011;27051;50.376;19.152;2023-04-16T05:54:41;60.90;;;29.60;;
41305;SDS011;27051;50.376;19.152;2023-04-16T05:57:07;63.10;;;29.90;;
41305;SDS011;27051;50.376;19.152;2023-04-16T05:59:34;66.60;;;32.60;;
41305;SDS011;27051;50.376;19.152;2023-04-16T06:02:01;68.60;;;32.20;;
41305;SDS011;27051;50.376;19.152;2023-04-16T06:04:27;76.00;;;34.10;;
41305;SDS011;27051;50.376;19.152;2023-04-16T06:06:54;78.20;;;36.10;;
41305;SDS011;27051;50.376;19.152;2023-04-16T06:09:20;70.70;;;31.70;;
41305;SDS011;27051;50.376;19.152;2023-04-16T06:11:47;62.00;;;30.90;;
41305;SDS011;27051;50.376;19.152;2023-04-16T06:14:14;66.20;;;28.70;;
41305;SDS011;27051;50.376;19.152;2023-04-16T06:16:40;59.00;;;28.40;;
41305;SDS011;27051;50.376;19.152;2023-04-16T06:19:07;57.00;;;26.70;;
41305;SDS011;27051;50.376;19.152;2023-04-16T06:21:33;55.70;;;28.60;;
41305;SDS011;27051;50.376;19.152;2023-04-16T06:24:00;55.30;;;24.40;;
41305;SDS011;27051;50.376;19.152;2023-04-16T06:26:26;53.70;;;26.70;;
41305;SDS011;27051;50.376;19.152;2023-04-16T06:28:53;49.90;;;23.90;;
41305;SDS011;27051;50.376;19.152;2023-04-16T06:31:19;53.70;;;24.20;;
41305;SDS011;27051;50.376;19.152;2023-04-16T06:33:46;50.50;;;25.50;;
41305;SDS011;27051;50.376;19.152;2023-04-16T06:36:12;40.70;;;21.90;;
41305;SDS011;27051;50.376;19.152;2023-04-16T06:38:38;42.90;;;20.50;;
41305;SDS011;27051;50.376;19.152;2023-04-16T06:41:05;39.30;;;21.90;;
41305;SDS011;27051;50.376;19.152;2023-04-16T06:43:31;44.30;;;22.10;;
41305;SDS011;27051;50.376;19.152;2023-04-16T06:45:59;45.90;;;22.50;;
41305;SDS011;27051;50.376;19.152;2023-04-16T06:48:25;39.70;;;20.70;;
41305;SDS011;27051;50.376;19.152;2023-04-16T06:50:53;35.00;;;18.40;;
41305;SDS011;27051;50.376;19.152;2023-04-16T06:53:20;33.80;;;18.40;;
41305;SDS011;27051;50.376;19.152;2023-04-16T06:55:47;31.90;;;17.30;;
41305;SDS011;27051;50.376;19.152;2023-04-16T06:58:14;32.70;;;17.40;;
41305;SDS011;27051;50.376;19.152;2023-04-16T07:00:40;30.60;;;16.30;;
41305;SDS011;27051;50.376;19.152;2023-04-16T07:03:07;29.50;;;16.60;;
41305;SDS011;27051;50.376;19.152;2023-04-16T07:05:34;27.50;;;14.30;;
41305;SDS011;27051;50.376;19.152;2023-04-16T07:08:00;30.90;;;16.90;;
41305;SDS011;27051;50.376;19.152;2023-04-16T07:10:27;27.30;;;14.10;;
41305;SDS011;27051;50.376;19.152;2023-04-16T07:12:53;29.20;;;15.30;;
41305;SDS011;27051;50.376;19.152;2023-04-16T07:15:20;28.70;;;15.60;;
41305;SDS011;27051;50.376;19.152;2023-04-16T07:17:47;26.60;;;14.30;;
41305;SDS011;27051;50.376;19.152;2023-04-16T07:20:13;28.20;;;16.40;;
41305;SDS011;27051;50.376;19.152;2023-04-16T07:22:40;29.40;;;15.60;;
41305;SDS011;27051;50.376;19.152;2023-04-16T07:25:07;29.10;;;15.40;;
41305;SDS011;27051;50.376;19.152;2023-04-16T07:27:34;30.40;;;16.00;;
41305;SDS011;27051;50.376;19.152;2023-04-16T07:30:00;28.30;;;16.10;;
41305;SDS011;27051;50.376;19.152;2023-04-16T07:32:27;26.90;;;15.80;;
41305;SDS011;27051;50.376;19.152;2023-04-16T07:34:53;28.30;;;16.10;;
41305;SDS011;27051;50.376;19.152;2023-04-16T07:37:19;34.50;;;17.10;;
41305;SDS011;27051;50.376;19.152;2023-04-16T07:39:46;33.60;;;17.60;;
41305;SDS011;27051;50.376;19.152;2023-04-16T07:42:12;32.40;;;16.80;;
41305;SDS011;27051;50.376;19.152;2023-04-16T07:44:39;34.90;;;17.50;;
41305;SDS011;27051;50.376;19.152;2023-04-16T07:47:05;29.50;;;14.80;;
41305;SDS011;27051;50.376;19.152;2023-04-16T07:49:32;31.80;;;15.70;;
41305;SDS011;27051;50.376;19.152;2023-04-16T07:51:58;31.90;;;16.70;;
41305;SDS011;27051;50.376;19.152;2023-04-16T07:54:25;31.40;;;16.90;;
41305;SDS011;27051;50.376;19.152;2023-04-16T07:56:52;26.00;;;13.70;;
41305;SDS011;27051;50.376;19.152;2023-04-16T07:59:18;28.10;;;14.00;;
41305;SDS011;27051;50.376;19.152;2023-04-16T08:01:44;27.30;;;15.80;;
41305;SDS011;27051;50.376;19.152;2023-04-16T08:04:11;23.50;;;12.60;;
41305;SDS011;27051;50.376;19.152;2023-04-16T08:06:38;24.70;;;13.60;;
41305;SDS011;27051;50.376;19.152;2023-04-16T08:09:04;23.40;;;12.70;;
41305;SDS011;27051;50.376;19.152;2023-04-16T08:11:31;23.70;;;13.00;;
41305;SDS011;27051;50.376;19.152;2023-04-16T08:13:57;22.90;;;12.90;;
41305;SDS011;27051;50.376;19.152;2023-04-16T08:16:24;22.90;;;12.40;;
41305;SDS011;27051;50.376;19.152;2023-04-16T08:18:50;26.00;;;13.60;;
41305;SDS011;27051;50.376;19.152;2023-04-16T08:21:17;22.10;;;12.20;;
41305;SDS011;27051;50.376;19.152;2023-04-16T08:23:43;22.40;;;11.80;;
41305;SDS011;27051;50.376;19.152;2023-04-16T08:26:10;22.70;;;13.10;;
41305;SDS011;27051;50.376;19.152;2023-04-16T08:28:36;21.70;;;12.00;;
41305;SDS011;27051;50.376;19.152;2023-04-16T08:31:02;24.10;;;13.10;;
41305;SDS011;27051;50.376;19.152;2023-04-16T08:33:29;20.90;;;12.70;;
41305;SDS011;27051;50.376;19.152;2023-04-16T08:35:56;19.50;;;11.80;;
41305;SDS011;27051;50.376;19.152;2023-04-16T08:38:22;19.60;;;11.60;;
41305;SDS011;27051;50.376;19.152;2023-04-16T08:40:48;19.10;;;11.10;;
41305;SDS011;27051;50.376;19.152;2023-04-16T08:43:15;18.00;;;9.50;;
41305;SDS011;27051;50.376;19.152;2023-04-16T08:45:44;17.30;;;9.30;;
41305;SDS011;27051;50.376;19.152;2023-04-16T08:48:12;15.70;;;9.30;;
41305;SDS011;27051;50.376;19.152;2023-04-16T08:50:40;14.70;;;9.00;;
41305;SDS011;27051;50.376;19.152;2023-04-16T08:53:09;17.80;;;10.20;;
41305;SDS011;27051;50.376;19.152;2023-04-16T08:55:39;15.40;;;9.40;;
41305;SDS011;27051;50.376;19.152;2023-04-16T08:58:17;13.90;;;9.00;;
41305;SDS011;27051;50.376;19.152;2023-04-16T09:00:45;17.00;;;10.60;;
41305;SDS011;27051;50.376;19.152;2023-04-16T09:03:13;17.70;;;10.40;;
41305;SDS011;27051;50.376;19.152;2023-04-16T09:05:40;19.10;;;10.20;;
41305;SDS011;27051;50.376;19.152;2023-04-16T09:08:09;20.70;;;10.60;;
41305;SDS011;27051;50.376;19.152;2023-04-16T09:10:35;14.00;;;8.80;;
41305;SDS011;27051;50.376;19.152;2023-04-16T09:13:01;24.20;;;15.60;;
41305;SDS011;27051;50.376;19.152;2023-04-16T09:15:28;15.70;;;10.00;;
41305;SDS011;27051;50.376;19.152;2023-04-16T09:17:54;13.90;;;9.10;;
41305;SDS011;27051;50.376;19.152;2023-04-16T09:20:21;14.70;;;8.70;;
41305;SDS011;27051;50.376;19.152;2023-04-16T09:22:47;13.50;;;8.80;;
41305;SDS011;27051;50.376;19.152;2023-04-16T09:25:14;15.30;;;9.70;;
41305;SDS011;27051;50.376;19.152;2023-04-16T09:27:40;15.00;;;9.70;;
41305;SDS011;27051;50.376;19.152;2023-04-16T09:30:23;18.40;;;10.70;;
41305;SDS011;27051;50.376;19.152;2023-04-16T09:32:51;14.90;;;9.40;;
41305;SDS011;27051;50.376;19.152;2023-04-16T09:35:46;17.00;;;10.20;;
41305;SDS011;27051;50.376;19.152;2023-04-16T09:38:16;15.90;;;10.20;;
41305;SDS011;27051;50.376;19.152;2023-04-16T09:40:42;19.10;;;11.00;;
41305;SDS011;27051;50.376;19.152;2023-04-16T09:43:13;16.90;;;10.20;;
41305;SDS011;27051;50.376;19.152;2023-04-16T09:45:50;16.40;;;11.10;;
41305;SDS011;27051;50.376;19.152;2023-04-16T09:48:27;15.20;;;9.00;;
41305;SDS011;27051;50.376;19.152;2023-04-16T09:50:54;11.60;;;7.70;;
41305;SDS011;27051;50.376;19.152;2023-04-16T09:53:27;12.40;;;8.60;;
41305;SDS011;27051;50.376;19.152;2023-04-16T09:55:56;13.10;;;9.00;;
41305;SDS011;27051;50.376;19.152;2023-04-16T09:58:23;12.40;;;7.50;;
41305;SDS011;27051;50.376;19.152;2023-04-16T10:00:59;11.10;;;6.90;;
41305;SDS011;27051;50.376;19.152;2023-04-16T10:03:29;11.90;;;7.10;;
41305;SDS011;27051;50.376;19.152;2023-04-16T10:06:02;11.50;;;7.40;;
41305;SDS011;27051;50.376;19.152;2023-04-16T10:11:14;11.50;;;7.50;;
41305;SDS011;27051;50.376;19.152;2023-04-16T10:13:41;11.00;;;7.30;;
41305;SDS011;27051;50.376;19.152;2023-04-16T10:16:08;8.30;;;6.70;;
41305;SDS011;27051;50.376;19.152;2023-04-16T10:18:35;9.00;;;6.90;;
41305;SDS011;27051;50.376;19.152;2023-04-16T10:21:04;8.50;;;6.40;;
41305;SDS011;27051;50.376;19.152;2023-04-16T10:23:31;10.10;;;6.90;;
41305;SDS011;27051;50.376;19.152;2023-04-16T10:26:00;8.40;;;6.80;;
41305;SDS011;27051;50.376;19.152;2023-04-16T10:28:27;9.60;;;7.00;;
41305;SDS011;27051;50.376;19.152;2023-04-16T10:30:56;11.40;;;7.90;;
41305;SDS011;27051;50.376;19.152;2023-04-16T10:33:27;11.00;;;7.20;;
41305;SDS011;27051;50.376;19.152;2023-04-16T10:36:13;10.50;;;6.70;;
41305;SDS011;27051;50.376;19.152;2023-04-16T10:38:44;9.80;;;6.90;;
41305;SDS011;27051;50.376;19.152;2023-04-16T10:41:12;10.30;;;6.80;;
41305;SDS011;27051;50.376;19.152;2023-04-16T10:43:40;21.60;;;15.20;;
41305;SDS011;27051;50.376;19.152;2023-04-16T10:48:52;10.00;;;7.50;;
41305;SDS011;27051;50.376;19.152;2023-04-16T10:51:23;11.70;;;7.60;;
41305;SDS011;27051;50.376;19.152;2023-04-16T10:53:55;12.60;;;6.90;;
41305;SDS011;27051;50.376;19.152;2023-04-16T10:56:26;11.70;;;7.80;;
41305;SDS011;27051;50.376;19.152;2023-04-16T10:58:53;10.20;;;7.20;;
41305;SDS011;27051;50.376;19.152;2023-04-16T11:01:22;11.60;;;7.30;;
41305;SDS011;27051;50.376;19.152;2023-04-16T11:03:56;11.80;;;8.10;;
41305;SDS011;27051;50.376;19.152;2023-04-16T11:06:24;218.40;;;174.20;;
41305;SDS011;27051;50.376;19.152;2023-04-16T11:08:51;18.80;;;11.30;;
41305;SDS011;27051;50.376;19.152;2023-04-16T11:11:19;12.00;;;8.30;;
41305;SDS011;27051;50.376;19.152;2023-04-16T11:13:46;12.80;;;8.10;;
41305;SDS011;27051;50.376;19.152;2023-04-16T11:16:13;14.70;;;8.60;;
41305;SDS011;27051;50.376;19.152;2023-04-16T11:18:41;12.60;;;8.40;;
41305;SDS011;27051;50.376;19.152;2023-04-16T11:21:11;19.70;;;10.90;;
41305;SDS011;27051;50.376;19.152;2023-04-16T11:23:51;12.90;;;7.40;;
41305;SDS011;27051;50.376;19.152;2023-04-16T11:26:27;12.10;;;8.20;;
41305;SDS011;27051;50.376;19.152;2023-04-16T11:28:54;9.80;;;6.90;;
41305;SDS011;27051;50.376;19.152;2023-04-16T11:31:22;10.00;;;6.90;;
41305;SDS011;27051;50.376;19.152;2023-04-16T11:33:49;10.50;;;7.10;;
41305;SDS011;27051;50.376;19.152;2023-04-16T11:36:16;11.00;;;7.40;;
41305;SDS011;27051;50.376;19.152;2023-04-16T11:38:42;11.90;;;7.40;;
41305;SDS011;27051;50.376;19.152;2023-04-16T11:41:09;12.80;;;8.10;;
41305;SDS011;27051;50.376;19.152;2023-04-16T11:43:36;14.90;;;8.50;;
41305;SDS011;27051;50.376;19.152;2023-04-16T11:46:03;15.60;;;9.30;;
41305;SDS011;27051;50.376;19.152;2023-04-16T11:48:48;10.70;;;8.00;;
41305;SDS011;27051;50.376;19.152;2023-04-16T11:51:16;10.60;;;7.60;;
41305;SDS011;27051;50.376;19.152;2023-04-16T11:53:46;17.20;;;8.80;;
41305;SDS011;27051;50.376;19.152;2023-04-16T11:56:14;17.20;;;10.50;;
41305;SDS011;27051;50.376;19.152;2023-04-16T11:58:40;8.60;;;7.00;;
41305;SDS011;27051;50.376;19.152;2023-04-16T12:01:07;8.80;;;6.40;;
41305;SDS011;27051;50.376;19.152;2023-04-16T12:03:38;10.90;;;7.20;;
41305;SDS011;27051;50.376;19.152;2023-04-16T12:06:08;8.80;;;6.60;;
41305;SDS011;27051;50.376;19.152;2023-04-16T12:08:35;9.00;;;6.70;;
41305;SDS011;27051;50.376;19.152;2023-04-16T12:11:01;9.30;;;7.00;;
41305;SDS011;27051;50.376;19.152;2023-04-16T12:13:28;8.50;;;6.70;;
41305;SDS011;27051;50.376;19.152;2023-04-16T12:15:54;12.60;;;8.80;;
41305;SDS011;27051;50.376;19.152;2023-04-16T12:18:22;10.90;;;7.40;;
41305;SDS011;27051;50.376;19.152;2023-04-16T12:20:50;14.30;;;9.40;;
41305;SDS011;27051;50.376;19.152;2023-04-16T12:23:27;13.50;;;9.00;;
41305;SDS011;27051;50.376;19.152;2023-04-16T12:25:55;11.20;;;7.30;;
41305;SDS011;27051;50.376;19.152;2023-04-16T12:28:26;14.00;;;10.00;;
41305;SDS011;27051;50.376;19.152;2023-04-16T12:30:54;11.80;;;7.50;;
41305;SDS011;27051;50.376;19.152;2023-04-16T12:33:20;8.70;;;7.20;;
41305;SDS011;27051;50.376;19.152;2023-04-16T12:35:47;12.70;;;8.10;;
41305;SDS011;27051;50.376;19.152;2023-04-16T12:38:13;13.90;;;8.50;;
41305;SDS011;27051;50.376;19.152;2023-04-16T12:40:40;9.60;;;7.00;;
41305;SDS011;27051;50.376;19.152;2023-04-16T12:43:06;8.80;;;6.70;;
41305;SDS011;27051;50.376;19.152;2023-04-16T12:45:33;13.10;;;7.90;;
41305;SDS011;27051;50.376;19.152;2023-04-16T12:47:59;11.20;;;7.90;;
41305;SDS011;27051;50.376;19.152;2023-04-16T12:50:26;9.10;;;7.00;;
41305;SDS011;27051;50.376;19.152;2023-04-16T12:52:54;10.60;;;7.00;;
41305;SDS011;27051;50.376;19.152;2023-04-16T12:55:20;9.90;;;7.00;;
41305;SDS011;27051;50.376;19.152;2023-04-16T12:57:47;9.90;;;7.10;;
41305;SDS011;27051;50.376;19.152;2023-04-16T13:00:14;9.90;;;7.40;;
41305;SDS011;27051;50.376;19.152;2023-04-16T13:02:41;11.60;;;7.70;;
41305;SDS011;27051;50.376;19.152;2023-04-16T13:05:07;11.30;;;7.20;;
41305;SDS011;27051;50.376;19.152;2023-04-16T13:07:34;10.20;;;7.10;;
41305;SDS011;27051;50.376;19.152;2023-04-16T13:10:00;10.80;;;6.80;;
41305;SDS011;27051;50.376;19.152;2023-04-16T13:12:27;11.10;;;8.40;;
41305;SDS011;27051;50.376;19.152;2023-04-16T13:14:56;8.50;;;6.50;;
41305;SDS011;27051;50.376;19.152;2023-04-16T13:17:23;48.70;;;33.70;;
41305;SDS011;27051;50.376;19.152;2023-04-16T13:19:49;14.30;;;9.30;;
41305;SDS011;27051;50.376;19.152;2023-04-16T13:22:16;8.90;;;6.50;;
41305;SDS011;27051;50.376;19.152;2023-04-16T13:24:55;7.60;;;5.10;;
41305;SDS011;27051;50.376;19.152;2023-04-16T13:27:21;5.40;;;4.90;;
41305;SDS011;27051;50.376;19.152;2023-04-16T13:29:48;6.30;;;5.30;;
41305;SDS011;27051;50.376;19.152;2023-04-16T13:32:14;7.60;;;5.20;;
41305;SDS011;27051;50.376;19.152;2023-04-16T13:34:41;6.10;;;5.50;;
41305;SDS011;27051;50.376;19.152;2023-04-16T13:37:07;7.40;;;5.50;;
41305;SDS011;27051;50.376;19.152;2023-04-16T13:39:34;6.20;;;5.40;;
41305;SDS011;27051;50.376;19.152;2023-04-16T13:42:00;6.20;;;4.90;;
41305;SDS011;27051;50.376;19.152;2023-04-16T13:44:27;5.90;;;4.80;;
41305;SDS011;27051;50.376;19.152;2023-04-16T13:46:53;6.90;;;4.80;;
41305;SDS011;27051;50.376;19.152;2023-04-16T13:49:19;6.30;;;5.10;;
41305;SDS011;27051;50.376;19.152;2023-04-16T13:51:46;5.20;;;4.40;;
41305;SDS011;27051;50.376;19.152;2023-04-16T13:54:12;4.80;;;4.30;;
41305;SDS011;27051;50.376;19.152;2023-04-16T13:56:39;5.20;;;4.40;;
41305;SDS011;27051;50.376;19.152;2023-04-16T13:59:05;5.50;;;4.90;;
41305;SDS011;27051;50.376;19.152;2023-04-16T14:01:32;5.10;;;4.60;;
41305;SDS011;27051;50.376;19.152;2023-04-16T14:03:59;5.40;;;4.80;;
41305;SDS011;27051;50.376;19.152;2023-04-16T14:06:27;6.00;;;4.60;;
41305;SDS011;27051;50.376;19.152;2023-04-16T14:08:53;5.50;;;5.00;;
41305;SDS011;27051;50.376;19.152;2023-04-16T14:11:19;5.00;;;4.50;;
41305;SDS011;27051;50.376;19.152;2023-04-16T14:13:46;4.80;;;4.30;;
41305;SDS011;27051;50.376;19.152;2023-04-16T14:16:12;9.80;;;7.40;;
41305;SDS011;27051;50.376;19.152;2023-04-16T14:18:39;5.40;;;4.50;;
41305;SDS011;27051;50.376;19.152;2023-04-16T14:21:05;4.60;;;4.20;;